sensor_id;sensor_type;location;lat;lon;timestamp;P1;durP1;ratioP1;P2;durP2;ratioP2
73650;SDS011;61944;52.538;6.108;2022-12-15T00:00:07;23.55;;;12.73;;
73650;SDS011;61944;52.538;6.108;2022-12-15T00:02:52;22.50;;;12.93;;
73650;SDS011;61944;52.538;6.108;2022-12-15T00:05:36;33.25;;;14.80;;
73650;SDS011;61944;52.538;6.108;2022-12-15T00:08:20;26.83;;;15.43;;
73650;SDS011;61944;52.538;6.108;2022-12-15T00:11:04;24.13;;;14.43;;
73650;SDS011;61944;52.538;6.108;2022-12-15T00:13:48;23.92;;;14.45;;
73650;SDS011;61944;52.538;6.108;2022-12-15T00:16:32;25.58;;;12.80;;
73650;SDS011;61944;52.538;6.108;2022-12-15T00:19:16;36.13;;;14.80;;
73650;SDS011;61944;52.538;6.108;2022-12-15T00:22:00;27.45;;;13.63;;
73650;SDS011;61944;52.538;6.108;2022-12-15T00:24:44;26.08;;;13.48;;
73650;SDS011;61944;52.538;6.108;2022-12-15T00:27:28;27.00;;;14.68;;
73650;SDS011;61944;52.538;6.108;2022-12-15T00:30:12;24.67;;;13.55;;
73650;SDS011;61944;52.538;6.108;2022-12-15T00:32:56;19.42;;;11.73;;
73650;SDS011;61944;52.538;6.108;2022-12-15T00:35:40;28.45;;;15.30;;
73650;SDS011;61944;52.538;6.108;2022-12-15T00:38:24;25.92;;;14.27;;
73650;SDS011;61944;52.538;6.108;2022-12-15T00:41:09;26.65;;;13.32;;
73650;SDS011;61944;52.538;6.108;2022-12-15T00:43:35;21.23;;;13.32;;
73650;SDS011;61944;52.538;6.108;2022-12-15T00:46:00;25.40;;;12.77;;
73650;SDS011;61944;52.538;6.108;2022-12-15T00:48:45;25.30;;;13.05;;
73650;SDS011;61944;52.538;6.108;2022-12-15T00:51:11;24.45;;;13.82;;
73650;SDS011;61944;52.538;6.108;2022-12-15T00:53:37;24.48;;;13.52;;
73650;SDS011;61944;52.538;6.108;2022-12-15T00:56:22;22.55;;;12.77;;
73650;SDS011;61944;52.538;6.108;2022-12-15T00:59:06;26.25;;;13.13;;
73650;SDS011;61944;52.538;6.108;2022-12-15T01:01:50;20.63;;;12.20;;
73650;SDS011;61944;52.538;6.108;2022-12-15T01:04:34;29.02;;;13.80;;
73650;SDS011;61944;52.538;6.108;2022-12-15T01:07:18;24.63;;;11.63;;
73650;SDS011;61944;52.538;6.108;2022-12-15T01:10:02;21.38;;;12.85;;
73650;SDS011;61944;52.538;6.108;2022-12-15T01:12:47;22.10;;;11.93;;
73650;SDS011;61944;52.538;6.108;2022-12-15T01:15:31;21.75;;;12.07;;
73650;SDS011;61944;52.538;6.108;2022-12-15T01:18:15;24.27;;;12.73;;
73650;SDS011;61944;52.538;6.108;2022-12-15T01:21:03;21.73;;;12.35;;
73650;SDS011;61944;52.538;6.108;2022-12-15T01:23:32;25.80;;;12.98;;
73650;SDS011;61944;52.538;6.108;2022-12-15T01:25:58;28.45;;;13.77;;
73650;SDS011;61944;52.538;6.108;2022-12-15T01:28:24;28.80;;;14.77;;
73650;SDS011;61944;52.538;6.108;2022-12-15T01:30:50;20.48;;;13.02;;
73650;SDS011;61944;52.538;6.108;2022-12-15T01:33:16;25.60;;;13.20;;
73650;SDS011;61944;52.538;6.108;2022-12-15T01:35:42;21.00;;;11.73;;
73650;SDS011;61944;52.538;6.108;2022-12-15T01:38:08;20.80;;;11.93;;
73650;SDS011;61944;52.538;6.108;2022-12-15T01:40:35;20.55;;;11.90;;
73650;SDS011;61944;52.538;6.108;2022-12-15T01:43:29;20.95;;;13.45;;
73650;SDS011;61944;52.538;6.108;2022-12-15T01:45:58;23.80;;;12.40;;
73650;SDS011;61944;52.538;6.108;2022-12-15T01:48:33;24.27;;;11.45;;
73650;SDS011;61944;52.538;6.108;2022-12-15T01:54:16;17.80;;;10.45;;
73650;SDS011;61944;52.538;6.108;2022-12-15T01:56:38;17.77;;;11.25;;
73650;SDS011;61944;52.538;6.108;2022-12-15T01:59:10;21.95;;;12.90;;
73650;SDS011;61944;52.538;6.108;2022-12-15T02:01:39;27.15;;;12.45;;
73650;SDS011;61944;52.538;6.108;2022-12-15T02:04:05;23.67;;;12.82;;
73650;SDS011;61944;52.538;6.108;2022-12-15T02:06:32;21.67;;;11.80;;
73650;SDS011;61944;52.538;6.108;2022-12-15T02:08:58;20.98;;;12.43;;
73650;SDS011;61944;52.538;6.108;2022-12-15T02:14:03;22.33;;;11.93;;
73650;SDS011;61944;52.538;6.108;2022-12-15T02:22:12;22.80;;;12.27;;
73650;SDS011;61944;52.538;6.108;2022-12-15T02:24:56;19.90;;;11.38;;
73650;SDS011;61944;52.538;6.108;2022-12-15T02:30:16;25.02;;;13.43;;
73650;SDS011;61944;52.538;6.108;2022-12-15T02:33:00;23.83;;;12.05;;
73650;SDS011;61944;52.538;6.108;2022-12-15T02:35:31;22.08;;;11.43;;
73650;SDS011;61944;52.538;6.108;2022-12-15T02:38:32;25.20;;;12.80;;
73650;SDS011;61944;52.538;6.108;2022-12-15T02:41:00;21.38;;;11.88;;
73650;SDS011;61944;52.538;6.108;2022-12-15T02:43:28;24.52;;;12.30;;
73650;SDS011;61944;52.538;6.108;2022-12-15T02:46:17;23.50;;;12.07;;
73650;SDS011;61944;52.538;6.108;2022-12-15T02:48:59;23.08;;;11.50;;
73650;SDS011;61944;52.538;6.108;2022-12-15T02:58:24;28.05;;;13.57;;
73650;SDS011;61944;52.538;6.108;2022-12-15T03:00:33;17.33;;;12.00;;
73650;SDS011;61944;52.538;6.108;2022-12-15T03:03:04;22.33;;;12.80;;
73650;SDS011;61944;52.538;6.108;2022-12-15T03:05:29;24.05;;;11.68;;
73650;SDS011;61944;52.538;6.108;2022-12-15T03:07:56;18.40;;;12.15;;
73650;SDS011;61944;52.538;6.108;2022-12-15T03:10:22;28.25;;;11.70;;
73650;SDS011;61944;52.538;6.108;2022-12-15T03:12:49;21.73;;;12.27;;
73650;SDS011;61944;52.538;6.108;2022-12-15T03:15:15;21.77;;;11.85;;
73650;SDS011;61944;52.538;6.108;2022-12-15T03:17:41;21.25;;;12.38;;
73650;SDS011;61944;52.538;6.108;2022-12-15T03:20:07;20.10;;;11.25;;
73650;SDS011;61944;52.538;6.108;2022-12-15T03:22:33;22.33;;;12.80;;
73650;SDS011;61944;52.538;6.108;2022-12-15T03:25:00;18.50;;;12.27;;
73650;SDS011;61944;52.538;6.108;2022-12-15T03:27:25;26.05;;;12.68;;
73650;SDS011;61944;52.538;6.108;2022-12-15T03:29:50;29.20;;;11.18;;
73650;SDS011;61944;52.538;6.108;2022-12-15T03:32:16;19.63;;;11.27;;
73650;SDS011;61944;52.538;6.108;2022-12-15T03:34:41;23.25;;;13.75;;
73650;SDS011;61944;52.538;6.108;2022-12-15T03:37:06;21.20;;;11.45;;
73650;SDS011;61944;52.538;6.108;2022-12-15T03:39:32;23.42;;;13.23;;
73650;SDS011;61944;52.538;6.108;2022-12-15T03:41:57;25.90;;;12.77;;
73650;SDS011;61944;52.538;6.108;2022-12-15T03:44:23;21.60;;;12.07;;
73650;SDS011;61944;52.538;6.108;2022-12-15T03:46:48;17.95;;;10.40;;
73650;SDS011;61944;52.538;6.108;2022-12-15T03:49:14;20.65;;;11.65;;
73650;SDS011;61944;52.538;6.108;2022-12-15T03:51:39;21.20;;;11.27;;
73650;SDS011;61944;52.538;6.108;2022-12-15T03:54:04;22.05;;;11.85;;
73650;SDS011;61944;52.538;6.108;2022-12-15T03:56:31;21.05;;;11.98;;
73650;SDS011;61944;52.538;6.108;2022-12-15T03:58:56;20.85;;;11.93;;
73650;SDS011;61944;52.538;6.108;2022-12-15T04:03:51;22.58;;;12.07;;
73650;SDS011;61944;52.538;6.108;2022-12-15T04:06:17;22.95;;;12.40;;
73650;SDS011;61944;52.538;6.108;2022-12-15T04:08:42;21.27;;;11.20;;
73650;SDS011;61944;52.538;6.108;2022-12-15T04:11:07;24.25;;;11.07;;
73650;SDS011;61944;52.538;6.108;2022-12-15T04:13:33;17.63;;;10.38;;
73650;SDS011;61944;52.538;6.108;2022-12-15T04:16:00;19.77;;;10.93;;
73650;SDS011;61944;52.538;6.108;2022-12-15T04:18:26;22.92;;;10.68;;
73650;SDS011;61944;52.538;6.108;2022-12-15T04:20:51;21.27;;;11.65;;
73650;SDS011;61944;52.538;6.108;2022-12-15T04:23:16;21.20;;;10.73;;
73650;SDS011;61944;52.538;6.108;2022-12-15T04:25:42;18.90;;;9.90;;
73650;SDS011;61944;52.538;6.108;2022-12-15T04:28:26;18.27;;;10.93;;
73650;SDS011;61944;52.538;6.108;2022-12-15T04:31:11;21.90;;;10.95;;
73650;SDS011;61944;52.538;6.108;2022-12-15T04:33:58;24.10;;;11.23;;
73650;SDS011;61944;52.538;6.108;2022-12-15T04:36:46;21.55;;;11.70;;
73650;SDS011;61944;52.538;6.108;2022-12-15T04:39:35;17.02;;;9.57;;
73650;SDS011;61944;52.538;6.108;2022-12-15T04:42:23;18.55;;;10.57;;
73650;SDS011;61944;52.538;6.108;2022-12-15T04:45:08;19.33;;;9.95;;
73650;SDS011;61944;52.538;6.108;2022-12-15T04:47:54;22.08;;;12.00;;
73650;SDS011;61944;52.538;6.108;2022-12-15T04:50:38;17.63;;;9.95;;
73650;SDS011;61944;52.538;6.108;2022-12-15T04:53:22;14.95;;;9.82;;
73650;SDS011;61944;52.538;6.108;2022-12-15T04:56:10;18.98;;;10.82;;
73650;SDS011;61944;52.538;6.108;2022-12-15T04:58:56;17.42;;;11.43;;
73650;SDS011;61944;52.538;6.108;2022-12-15T05:01:40;21.23;;;11.48;;
73650;SDS011;61944;52.538;6.108;2022-12-15T05:04:25;17.83;;;10.88;;
73650;SDS011;61944;52.538;6.108;2022-12-15T05:07:09;19.30;;;10.95;;
73650;SDS011;61944;52.538;6.108;2022-12-15T05:09:52;21.50;;;12.88;;
73650;SDS011;61944;52.538;6.108;2022-12-15T05:12:36;19.58;;;11.35;;
73650;SDS011;61944;52.538;6.108;2022-12-15T05:15:20;23.00;;;10.05;;
73650;SDS011;61944;52.538;6.108;2022-12-15T05:18:04;18.83;;;10.70;;
73650;SDS011;61944;52.538;6.108;2022-12-15T05:20:48;18.92;;;11.07;;
73650;SDS011;61944;52.538;6.108;2022-12-15T05:23:32;14.60;;;9.70;;
73650;SDS011;61944;52.538;6.108;2022-12-15T05:26:16;17.95;;;11.13;;
73650;SDS011;61944;52.538;6.108;2022-12-15T05:29:00;18.27;;;10.48;;
73650;SDS011;61944;52.538;6.108;2022-12-15T05:31:44;19.33;;;10.55;;
73650;SDS011;61944;52.538;6.108;2022-12-15T05:34:32;15.95;;;9.55;;
73650;SDS011;61944;52.538;6.108;2022-12-15T05:36:59;18.73;;;10.50;;
73650;SDS011;61944;52.538;6.108;2022-12-15T05:39:26;14.27;;;8.90;;
73650;SDS011;61944;52.538;6.108;2022-12-15T05:41:52;15.60;;;10.52;;
73650;SDS011;61944;52.538;6.108;2022-12-15T05:44:18;21.80;;;11.10;;
73650;SDS011;61944;52.538;6.108;2022-12-15T05:46:44;18.90;;;11.65;;
73650;SDS011;61944;52.538;6.108;2022-12-15T05:49:13;16.98;;;10.93;;
73650;SDS011;61944;52.538;6.108;2022-12-15T05:51:40;20.30;;;11.00;;
73650;SDS011;61944;52.538;6.108;2022-12-15T05:54:07;20.70;;;11.70;;
73650;SDS011;61944;52.538;6.108;2022-12-15T05:56:34;18.17;;;10.45;;
73650;SDS011;61944;52.538;6.108;2022-12-15T05:59:00;16.48;;;9.75;;
73650;SDS011;61944;52.538;6.108;2022-12-15T06:01:26;19.27;;;10.32;;
73650;SDS011;61944;52.538;6.108;2022-12-15T06:03:52;18.75;;;10.43;;
73650;SDS011;61944;52.538;6.108;2022-12-15T06:06:17;18.42;;;10.65;;
73650;SDS011;61944;52.538;6.108;2022-12-15T06:08:44;16.08;;;9.25;;
73650;SDS011;61944;52.538;6.108;2022-12-15T06:11:13;16.55;;;9.23;;
73650;SDS011;61944;52.538;6.108;2022-12-15T06:13:39;17.23;;;10.02;;
73650;SDS011;61944;52.538;6.108;2022-12-15T06:16:06;18.50;;;10.07;;
73650;SDS011;61944;52.538;6.108;2022-12-15T06:18:38;16.55;;;9.52;;
73650;SDS011;61944;52.538;6.108;2022-12-15T06:21:08;15.38;;;8.55;;
73650;SDS011;61944;52.538;6.108;2022-12-15T06:23:36;16.48;;;9.40;;
73650;SDS011;61944;52.538;6.108;2022-12-15T06:26:12;16.00;;;9.93;;
73650;SDS011;61944;52.538;6.108;2022-12-15T06:28:51;17.17;;;8.98;;
73650;SDS011;61944;52.538;6.108;2022-12-15T06:31:19;15.38;;;8.80;;
73650;SDS011;61944;52.538;6.108;2022-12-15T06:33:49;19.42;;;10.23;;
73650;SDS011;61944;52.538;6.108;2022-12-15T06:36:15;15.48;;;9.52;;
73650;SDS011;61944;52.538;6.108;2022-12-15T06:38:41;17.40;;;10.45;;
73650;SDS011;61944;52.538;6.108;2022-12-15T06:41:07;13.57;;;8.52;;
73650;SDS011;61944;52.538;6.108;2022-12-15T06:43:34;11.55;;;7.40;;
73650;SDS011;61944;52.538;6.108;2022-12-15T06:45:59;18.25;;;9.27;;
73650;SDS011;61944;52.538;6.108;2022-12-15T06:48:26;13.43;;;7.70;;
73650;SDS011;61944;52.538;6.108;2022-12-15T06:50:51;12.00;;;7.80;;
73650;SDS011;61944;52.538;6.108;2022-12-15T06:53:18;19.63;;;9.52;;
73650;SDS011;61944;52.538;6.108;2022-12-15T06:55:45;17.92;;;9.30;;
73650;SDS011;61944;52.538;6.108;2022-12-15T06:58:11;17.52;;;9.38;;
73650;SDS011;61944;52.538;6.108;2022-12-15T07:00:38;19.35;;;8.57;;
73650;SDS011;61944;52.538;6.108;2022-12-15T07:03:08;15.75;;;8.50;;
73650;SDS011;61944;52.538;6.108;2022-12-15T07:05:37;13.73;;;7.65;;
73650;SDS011;61944;52.538;6.108;2022-12-15T07:08:03;13.18;;;7.57;;
73650;SDS011;61944;52.538;6.108;2022-12-15T07:10:28;16.13;;;10.10;;
73650;SDS011;61944;52.538;6.108;2022-12-15T07:12:56;16.33;;;8.73;;
73650;SDS011;61944;52.538;6.108;2022-12-15T07:15:22;19.02;;;9.02;;
73650;SDS011;61944;52.538;6.108;2022-12-15T07:17:48;10.45;;;7.00;;
73650;SDS011;61944;52.538;6.108;2022-12-15T07:20:15;17.60;;;7.38;;
73650;SDS011;61944;52.538;6.108;2022-12-15T07:22:40;16.55;;;7.78;;
73650;SDS011;61944;52.538;6.108;2022-12-15T07:25:06;14.52;;;7.65;;
73650;SDS011;61944;52.538;6.108;2022-12-15T07:27:32;12.93;;;6.95;;
73650;SDS011;61944;52.538;6.108;2022-12-15T07:29:57;13.88;;;7.68;;
73650;SDS011;61944;52.538;6.108;2022-12-15T07:32:22;13.88;;;8.45;;
73650;SDS011;61944;52.538;6.108;2022-12-15T07:34:48;18.17;;;8.25;;
73650;SDS011;61944;52.538;6.108;2022-12-15T07:37:13;15.43;;;7.35;;
73650;SDS011;61944;52.538;6.108;2022-12-15T07:39:40;12.27;;;8.02;;
73650;SDS011;61944;52.538;6.108;2022-12-15T07:42:05;14.63;;;6.90;;
73650;SDS011;61944;52.538;6.108;2022-12-15T07:44:30;16.00;;;7.88;;
73650;SDS011;61944;52.538;6.108;2022-12-15T07:46:56;15.30;;;6.95;;
73650;SDS011;61944;52.538;6.108;2022-12-15T07:49:21;20.17;;;7.88;;
73650;SDS011;61944;52.538;6.108;2022-12-15T07:51:47;16.15;;;6.85;;
73650;SDS011;61944;52.538;6.108;2022-12-15T07:54:12;14.02;;;6.75;;
73650;SDS011;61944;52.538;6.108;2022-12-15T07:56:38;15.82;;;7.45;;
73650;SDS011;61944;52.538;6.108;2022-12-15T07:59:05;13.38;;;6.95;;
73650;SDS011;61944;52.538;6.108;2022-12-15T08:01:31;14.25;;;7.82;;
73650;SDS011;61944;52.538;6.108;2022-12-15T08:03:56;13.63;;;7.75;;
73650;SDS011;61944;52.538;6.108;2022-12-15T08:06:22;11.80;;;7.20;;
73650;SDS011;61944;52.538;6.108;2022-12-15T08:08:48;17.42;;;8.00;;
73650;SDS011;61944;52.538;6.108;2022-12-15T08:11:14;14.48;;;8.10;;
73650;SDS011;61944;52.538;6.108;2022-12-15T08:13:40;12.98;;;7.30;;
73650;SDS011;61944;52.538;6.108;2022-12-15T08:16:07;13.32;;;7.05;;
73650;SDS011;61944;52.538;6.108;2022-12-15T08:18:33;12.00;;;6.63;;
73650;SDS011;61944;52.538;6.108;2022-12-15T08:21:02;11.07;;;6.47;;
73650;SDS011;61944;52.538;6.108;2022-12-15T08:23:29;12.98;;;7.05;;
73650;SDS011;61944;52.538;6.108;2022-12-15T08:26:00;13.68;;;6.85;;
73650;SDS011;61944;52.538;6.108;2022-12-15T08:28:27;10.10;;;7.05;;
73650;SDS011;61944;52.538;6.108;2022-12-15T08:30:52;11.80;;;6.05;;
73650;SDS011;61944;52.538;6.108;2022-12-15T08:33:17;10.25;;;5.57;;
73650;SDS011;61944;52.538;6.108;2022-12-15T08:35:43;14.60;;;7.65;;
73650;SDS011;61944;52.538;6.108;2022-12-15T08:38:08;14.77;;;6.25;;
73650;SDS011;61944;52.538;6.108;2022-12-15T08:40:34;16.67;;;7.20;;
73650;SDS011;61944;52.538;6.108;2022-12-15T08:42:59;16.33;;;7.68;;
73650;SDS011;61944;52.538;6.108;2022-12-15T08:45:24;15.90;;;7.63;;
73650;SDS011;61944;52.538;6.108;2022-12-15T08:47:50;13.80;;;7.20;;
73650;SDS011;61944;52.538;6.108;2022-12-15T08:50:15;17.05;;;8.88;;
73650;SDS011;61944;52.538;6.108;2022-12-15T08:52:41;14.55;;;9.93;;
73650;SDS011;61944;52.538;6.108;2022-12-15T08:55:08;18.88;;;8.25;;
73650;SDS011;61944;52.538;6.108;2022-12-15T08:57:35;17.23;;;9.98;;
73650;SDS011;61944;52.538;6.108;2022-12-15T09:00:01;16.00;;;8.75;;
73650;SDS011;61944;52.538;6.108;2022-12-15T09:02:28;17.40;;;10.35;;
73650;SDS011;61944;52.538;6.108;2022-12-15T09:04:54;18.38;;;10.00;;
73650;SDS011;61944;52.538;6.108;2022-12-15T09:07:19;15.35;;;9.10;;
73650;SDS011;61944;52.538;6.108;2022-12-15T09:09:45;15.35;;;8.65;;
73650;SDS011;61944;52.538;6.108;2022-12-15T09:12:10;15.98;;;9.40;;
73650;SDS011;61944;52.538;6.108;2022-12-15T09:14:36;18.73;;;9.32;;
73650;SDS011;61944;52.538;6.108;2022-12-15T09:17:02;16.10;;;9.95;;
73650;SDS011;61944;52.538;6.108;2022-12-15T09:19:27;16.88;;;10.02;;
73650;SDS011;61944;52.538;6.108;2022-12-15T09:21:53;14.02;;;8.25;;
73650;SDS011;61944;52.538;6.108;2022-12-15T09:24:18;14.95;;;9.43;;
73650;SDS011;61944;52.538;6.108;2022-12-15T09:26:43;17.50;;;10.30;;
73650;SDS011;61944;52.538;6.108;2022-12-15T09:29:09;21.25;;;9.73;;
73650;SDS011;61944;52.538;6.108;2022-12-15T09:31:37;15.63;;;9.43;;
73650;SDS011;61944;52.538;6.108;2022-12-15T09:34:03;17.52;;;9.38;;
73650;SDS011;61944;52.538;6.108;2022-12-15T09:36:28;18.15;;;9.90;;
73650;SDS011;61944;52.538;6.108;2022-12-15T09:38:56;19.33;;;9.60;;
73650;SDS011;61944;52.538;6.108;2022-12-15T09:41:23;20.13;;;9.90;;
73650;SDS011;61944;52.538;6.108;2022-12-15T09:52:07;13.70;;;9.27;;
73650;SDS011;61944;52.538;6.108;2022-12-15T09:54:39;15.80;;;9.77;;
73650;SDS011;61944;52.538;6.108;2022-12-15T10:00:10;21.20;;;10.90;;
73650;SDS011;61944;52.538;6.108;2022-12-15T10:05:12;17.23;;;10.07;;
73650;SDS011;61944;52.538;6.108;2022-12-15T10:07:47;23.42;;;12.82;;
73650;SDS011;61944;52.538;6.108;2022-12-15T10:10:16;25.35;;;12.30;;
73650;SDS011;61944;52.538;6.108;2022-12-15T10:12:50;20.40;;;11.88;;
73650;SDS011;61944;52.538;6.108;2022-12-15T10:15:25;20.42;;;12.45;;
73650;SDS011;61944;52.538;6.108;2022-12-15T10:18:03;23.00;;;11.98;;
73650;SDS011;61944;52.538;6.108;2022-12-15T10:20:42;20.05;;;11.63;;
73650;SDS011;61944;52.538;6.108;2022-12-15T10:23:15;20.00;;;11.40;;
73650;SDS011;61944;52.538;6.108;2022-12-15T10:25:43;20.38;;;12.63;;
73650;SDS011;61944;52.538;6.108;2022-12-15T10:31:02;20.05;;;10.52;;
73650;SDS011;61944;52.538;6.108;2022-12-15T10:33:43;20.35;;;10.50;;
73650;SDS011;61944;52.538;6.108;2022-12-15T10:36:17;21.13;;;11.18;;
73650;SDS011;61944;52.538;6.108;2022-12-15T10:38:43;16.77;;;10.65;;
73650;SDS011;61944;52.538;6.108;2022-12-15T10:41:12;22.50;;;12.18;;
73650;SDS011;61944;52.538;6.108;2022-12-15T10:43:40;21.35;;;10.63;;
73650;SDS011;61944;52.538;6.108;2022-12-15T10:48:33;17.38;;;10.68;;
73650;SDS011;61944;52.538;6.108;2022-12-15T10:51:51;19.33;;;12.23;;
73650;SDS011;61944;52.538;6.108;2022-12-15T10:53:51;16.38;;;11.00;;
73650;SDS011;61944;52.538;6.108;2022-12-15T10:56:27;20.60;;;11.90;;
73650;SDS011;61944;52.538;6.108;2022-12-15T10:58:54;25.33;;;12.05;;
73650;SDS011;61944;52.538;6.108;2022-12-15T11:01:32;27.90;;;13.38;;
73650;SDS011;61944;52.538;6.108;2022-12-15T11:03:58;23.35;;;14.70;;
73650;SDS011;61944;52.538;6.108;2022-12-15T11:06:33;20.92;;;12.45;;
73650;SDS011;61944;52.538;6.108;2022-12-15T11:09:24;21.20;;;11.85;;
73650;SDS011;61944;52.538;6.108;2022-12-15T11:11:55;17.00;;;11.65;;
73650;SDS011;61944;52.538;6.108;2022-12-15T11:14:44;18.75;;;11.68;;
73650;SDS011;61944;52.538;6.108;2022-12-15T11:17:36;22.42;;;11.63;;
73650;SDS011;61944;52.538;6.108;2022-12-15T11:20:19;26.48;;;12.02;;
73650;SDS011;61944;52.538;6.108;2022-12-15T11:22:56;19.73;;;11.88;;
73650;SDS011;61944;52.538;6.108;2022-12-15T11:25:35;17.13;;;11.27;;
73650;SDS011;61944;52.538;6.108;2022-12-15T11:28:17;20.52;;;11.52;;
73650;SDS011;61944;52.538;6.108;2022-12-15T11:30:49;20.30;;;12.07;;
73650;SDS011;61944;52.538;6.108;2022-12-15T11:33:20;22.27;;;12.40;;
73650;SDS011;61944;52.538;6.108;2022-12-15T11:43:57;16.25;;;11.07;;
73650;SDS011;61944;52.538;6.108;2022-12-15T11:49:41;17.63;;;10.30;;
73650;SDS011;61944;52.538;6.108;2022-12-15T11:52:32;14.50;;;10.40;;
73650;SDS011;61944;52.538;6.108;2022-12-15T12:01:12;14.20;;;8.85;;
73650;SDS011;61944;52.538;6.108;2022-12-15T12:03:52;14.55;;;8.68;;
73650;SDS011;61944;52.538;6.108;2022-12-15T12:06:46;14.32;;;8.25;;
73650;SDS011;61944;52.538;6.108;2022-12-15T12:09:33;14.63;;;8.88;;
73650;SDS011;61944;52.538;6.108;2022-12-15T12:17:50;20.73;;;11.85;;
73650;SDS011;61944;52.538;6.108;2022-12-15T12:20:24;18.88;;;11.85;;
73650;SDS011;61944;52.538;6.108;2022-12-15T12:23:02;26.30;;;12.35;;
73650;SDS011;61944;52.538;6.108;2022-12-15T12:25:35;19.15;;;12.38;;
73650;SDS011;61944;52.538;6.108;2022-12-15T12:28:14;20.17;;;13.13;;
73650;SDS011;61944;52.538;6.108;2022-12-15T12:30:45;22.85;;;14.02;;
73650;SDS011;61944;52.538;6.108;2022-12-15T12:35:53;24.73;;;12.77;;
73650;SDS011;61944;52.538;6.108;2022-12-15T12:38:25;18.08;;;11.88;;
73650;SDS011;61944;52.538;6.108;2022-12-15T12:43:30;22.27;;;12.38;;
73650;SDS011;61944;52.538;6.108;2022-12-15T12:51:40;18.20;;;12.38;;
73650;SDS011;61944;52.538;6.108;2022-12-15T12:56:56;23.02;;;14.00;;
73650;SDS011;61944;52.538;6.108;2022-12-15T13:01:54;21.52;;;13.80;;
73650;SDS011;61944;52.538;6.108;2022-12-15T13:04:41;23.42;;;13.68;;
73650;SDS011;61944;52.538;6.108;2022-12-15T13:14:59;22.25;;;13.05;;
73650;SDS011;61944;52.538;6.108;2022-12-15T13:17:31;20.73;;;12.82;;
73650;SDS011;61944;52.538;6.108;2022-12-15T13:20:04;20.15;;;12.65;;
73650;SDS011;61944;52.538;6.108;2022-12-15T13:22:39;20.60;;;12.35;;
73650;SDS011;61944;52.538;6.108;2022-12-15T13:25:26;20.50;;;12.05;;
73650;SDS011;61944;52.538;6.108;2022-12-15T13:28:00;15.50;;;10.10;;
73650;SDS011;61944;52.538;6.108;2022-12-15T13:31:10;16.15;;;10.70;;
73650;SDS011;61944;52.538;6.108;2022-12-15T13:41:40;15.43;;;9.80;;
73650;SDS011;61944;52.538;6.108;2022-12-15T13:44:34;24.98;;;10.48;;
73650;SDS011;61944;52.538;6.108;2022-12-15T13:49:42;16.63;;;9.55;;
73650;SDS011;61944;52.538;6.108;2022-12-15T13:55:05;17.20;;;8.45;;
73650;SDS011;61944;52.538;6.108;2022-12-15T13:57:41;21.77;;;10.57;;
73650;SDS011;61944;52.538;6.108;2022-12-15T14:00:15;17.33;;;9.23;;
73650;SDS011;61944;52.538;6.108;2022-12-15T14:02:42;16.20;;;9.68;;
73650;SDS011;61944;52.538;6.108;2022-12-15T14:05:21;17.10;;;10.40;;
73650;SDS011;61944;52.538;6.108;2022-12-15T14:10:19;18.35;;;10.95;;
73650;SDS011;61944;52.538;6.108;2022-12-15T14:12:48;20.35;;;10.38;;
73650;SDS011;61944;52.538;6.108;2022-12-15T14:15:16;19.42;;;10.57;;
73650;SDS011;61944;52.538;6.108;2022-12-15T14:17:45;22.00;;;10.65;;
73650;SDS011;61944;52.538;6.108;2022-12-15T14:20:19;18.30;;;10.80;;
73650;SDS011;61944;52.538;6.108;2022-12-15T14:22:49;24.05;;;10.98;;
73650;SDS011;61944;52.538;6.108;2022-12-15T14:25:20;18.95;;;10.27;;
73650;SDS011;61944;52.538;6.108;2022-12-15T14:27:47;21.00;;;11.52;;
73650;SDS011;61944;52.538;6.108;2022-12-15T14:32:39;19.13;;;11.27;;
73650;SDS011;61944;52.538;6.108;2022-12-15T14:35:07;18.88;;;10.90;;
73650;SDS011;61944;52.538;6.108;2022-12-15T14:37:38;20.23;;;10.95;;
73650;SDS011;61944;52.538;6.108;2022-12-15T14:40:04;20.80;;;12.00;;
73650;SDS011;61944;52.538;6.108;2022-12-15T14:42:31;20.25;;;11.70;;
73650;SDS011;61944;52.538;6.108;2022-12-15T14:44:56;21.73;;;11.73;;
73650;SDS011;61944;52.538;6.108;2022-12-15T14:47:23;18.42;;;10.65;;
73650;SDS011;61944;52.538;6.108;2022-12-15T14:49:51;20.27;;;11.57;;
73650;SDS011;61944;52.538;6.108;2022-12-15T14:55:41;22.33;;;12.65;;
73650;SDS011;61944;52.538;6.108;2022-12-15T14:57:54;22.02;;;11.95;;
73650;SDS011;61944;52.538;6.108;2022-12-15T15:05:39;24.98;;;13.55;;
73650;SDS011;61944;52.538;6.108;2022-12-15T15:08:14;23.65;;;14.38;;
73650;SDS011;61944;52.538;6.108;2022-12-15T15:10:45;27.63;;;15.68;;
73650;SDS011;61944;52.538;6.108;2022-12-15T15:13:35;23.65;;;14.45;;
73650;SDS011;61944;52.538;6.108;2022-12-15T15:16:04;23.87;;;15.00;;
73650;SDS011;61944;52.538;6.108;2022-12-15T15:18:30;55.08;;;29.40;;
73650;SDS011;61944;52.538;6.108;2022-12-15T15:20:57;24.90;;;16.17;;
73650;SDS011;61944;52.538;6.108;2022-12-15T15:23:27;30.55;;;16.17;;
73650;SDS011;61944;52.538;6.108;2022-12-15T15:25:57;26.83;;;17.25;;
73650;SDS011;61944;52.538;6.108;2022-12-15T15:33:48;39.88;;;24.80;;
73650;SDS011;61944;52.538;6.108;2022-12-15T15:36:13;41.15;;;22.98;;
73650;SDS011;61944;52.538;6.108;2022-12-15T15:38:39;30.27;;;18.70;;
73650;SDS011;61944;52.538;6.108;2022-12-15T15:41:17;35.03;;;19.60;;
73650;SDS011;61944;52.538;6.108;2022-12-15T15:43:44;36.53;;;23.00;;
73650;SDS011;61944;52.538;6.108;2022-12-15T15:46:13;41.33;;;22.33;;
73650;SDS011;61944;52.538;6.108;2022-12-15T15:48:43;42.92;;;29.08;;
73650;SDS011;61944;52.538;6.108;2022-12-15T15:51:11;37.03;;;25.73;;
73650;SDS011;61944;52.538;6.108;2022-12-15T15:53:38;31.80;;;19.23;;
73650;SDS011;61944;52.538;6.108;2022-12-15T15:56:04;27.52;;;18.42;;
73650;SDS011;61944;52.538;6.108;2022-12-15T15:58:31;36.55;;;21.90;;
73650;SDS011;61944;52.538;6.108;2022-12-15T16:00:57;31.60;;;19.77;;
73650;SDS011;61944;52.538;6.108;2022-12-15T16:03:22;34.03;;;20.38;;
73650;SDS011;61944;52.538;6.108;2022-12-15T16:05:49;29.60;;;19.30;;
73650;SDS011;61944;52.538;6.108;2022-12-15T16:08:15;29.02;;;18.88;;
73650;SDS011;61944;52.538;6.108;2022-12-15T16:10:44;28.27;;;18.27;;
73650;SDS011;61944;52.538;6.108;2022-12-15T16:13:11;33.50;;;19.58;;
73650;SDS011;61944;52.538;6.108;2022-12-15T16:15:40;31.02;;;20.88;;
73650;SDS011;61944;52.538;6.108;2022-12-15T16:18:06;35.13;;;18.85;;
73650;SDS011;61944;52.538;6.108;2022-12-15T16:20:31;32.40;;;18.52;;
73650;SDS011;61944;52.538;6.108;2022-12-15T16:23:00;31.25;;;19.70;;
73650;SDS011;61944;52.538;6.108;2022-12-15T16:25:34;30.58;;;19.63;;
73650;SDS011;61944;52.538;6.108;2022-12-15T16:28:08;29.42;;;19.50;;
73650;SDS011;61944;52.538;6.108;2022-12-15T16:30:36;36.72;;;19.95;;
73650;SDS011;61944;52.538;6.108;2022-12-15T16:33:02;43.35;;;24.75;;
73650;SDS011;61944;52.538;6.108;2022-12-15T16:35:27;47.30;;;28.15;;
73650;SDS011;61944;52.538;6.108;2022-12-15T16:37:52;42.10;;;24.50;;
73650;SDS011;61944;52.538;6.108;2022-12-15T16:40:19;46.65;;;26.20;;
73650;SDS011;61944;52.538;6.108;2022-12-15T16:43:09;52.08;;;28.38;;
73650;SDS011;61944;52.538;6.108;2022-12-15T16:45:43;64.07;;;36.40;;
73650;SDS011;61944;52.538;6.108;2022-12-15T16:48:10;52.92;;;28.70;;
73650;SDS011;61944;52.538;6.108;2022-12-15T16:50:36;41.10;;;23.40;;
73650;SDS011;61944;52.538;6.108;2022-12-15T16:53:03;45.20;;;27.05;;